sensor_id;sensor_type;location;lat;lon;timestamp;temperature;humidity
18105;DHT22;9179;50.968;3.134;2023-09-30T00:00:45;13.80;99.90
18105;DHT22;9179;50.968;3.134;2023-09-30T00:03:12;13.90;99.90
18105;DHT22;9179;50.968;3.134;2023-09-30T00:05:39;13.90;99.90
18105;DHT22;9179;50.968;3.134;2023-09-30T00:08:07;13.80;99.90
18105;DHT22;9179;50.968;3.134;2023-09-30T00:10:34;13.80;99.90
18105;DHT22;9179;50.968;3.134;2023-09-30T00:13:01;13.80;99.90
18105;DHT22;9179;50.968;3.134;2023-09-30T00:15:28;13.80;99.90
18105;DHT22;9179;50.968;3.134;2023-09-30T00:17:55;13.90;99.90
18105;DHT22;9179;50.968;3.134;2023-09-30T00:20:22;13.80;99.90
18105;DHT22;9179;50.968;3.134;2023-09-30T00:22:49;13.80;99.90
18105;DHT22;9179;50.968;3.134;2023-09-30T00:25:17;13.70;99.90
18105;DHT22;9179;50.968;3.134;2023-09-30T00:27:44;13.70;99.90
18105;DHT22;9179;50.968;3.134;2023-09-30T00:30:11;13.70;99.90
18105;DHT22;9179;50.968;3.134;2023-09-30T00:32:38;13.70;99.90
18105;DHT22;9179;50.968;3.134;2023-09-30T00:35:06;13.70;99.90
18105;DHT22;9179;50.968;3.134;2023-09-30T00:37:36;13.70;99.90
18105;DHT22;9179;50.968;3.134;2023-09-30T00:40:04;13.70;99.90
18105;DHT22;9179;50.968;3.134;2023-09-30T00:42:32;13.70;99.90
18105;DHT22;9179;50.968;3.134;2023-09-30T00:44:59;13.60;99.90
18105;DHT22;9179;50.968;3.134;2023-09-30T00:47:26;13.60;99.90
18105;DHT22;9179;50.968;3.134;2023-09-30T00:49:53;13.60;99.90
18105;DHT22;9179;50.968;3.134;2023-09-30T00:52:20;13.50;99.90
18105;DHT22;9179;50.968;3.134;2023-09-30T00:54:49;13.50;99.90
18105;DHT22;9179;50.968;3.134;2023-09-30T00:57:18;13.50;99.90
18105;DHT22;9179;50.968;3.134;2023-09-30T00:59:48;13.40;99.90
18105;DHT22;9179;50.968;3.134;2023-09-30T01:02:17;13.50;99.90
18105;DHT22;9179;50.968;3.134;2023-09-30T01:04:44;13.50;99.90
18105;DHT22;9179;50.968;3.134;2023-09-30T01:07:11;13.60;99.90
18105;DHT22;9179;50.968;3.134;2023-09-30T01:09:38;13.70;99.90
18105;DHT22;9179;50.968;3.134;2023-09-30T01:12:06;13.80;99.90
18105;DHT22;9179;50.968;3.134;2023-09-30T01:14:35;13.80;99.90
18105;DHT22;9179;50.968;3.134;2023-09-30T01:17:05;13.80;99.90
18105;DHT22;9179;50.968;3.134;2023-09-30T01:19:34;13.70;99.90
18105;DHT22;9179;50.968;3.134;2023-09-30T01:22:02;13.70;99.90
18105;DHT22;9179;50.968;3.134;2023-09-30T01:24:31;13.70;99.90
18105;DHT22;9179;50.968;3.134;2023-09-30T01:27:04;13.60;99.90
18105;DHT22;9179;50.968;3.134;2023-09-30T01:29:31;13.60;99.90
18105;DHT22;9179;50.968;3.134;2023-09-30T01:31:58;13.70;99.90
18105;DHT22;9179;50.968;3.134;2023-09-30T01:34:25;13.60;99.90
18105;DHT22;9179;50.968;3.134;2023-09-30T01:36:53;13.60;99.90
18105;DHT22;9179;50.968;3.134;2023-09-30T01:39:21;13.60;99.90
18105;DHT22;9179;50.968;3.134;2023-09-30T01:41:48;13.50;99.90
18105;DHT22;9179;50.968;3.134;2023-09-30T01:44:15;13.50;99.90
18105;DHT22;9179;50.968;3.134;2023-09-30T01:46:42;13.50;99.90
18105;DHT22;9179;50.968;3.134;2023-09-30T01:49:09;13.30;99.90
18105;DHT22;9179;50.968;3.134;2023-09-30T01:51:36;13.30;99.90
18105;DHT22;9179;50.968;3.134;2023-09-30T01:54:04;13.20;99.90
18105;DHT22;9179;50.968;3.134;2023-09-30T01:56:33;13.10;99.90
18105;DHT22;9179;50.968;3.134;2023-09-30T01:59:00;13.00;99.90
18105;DHT22;9179;50.968;3.134;2023-09-30T02:01:27;12.90;99.90
18105;DHT22;9179;50.968;3.134;2023-09-30T02:03:53;12.80;99.90
18105;DHT22;9179;50.968;3.134;2023-09-30T02:06:20;12.80;99.90
18105;DHT22;9179;50.968;3.134;2023-09-30T02:08:47;12.70;99.90
18105;DHT22;9179;50.968;3.134;2023-09-30T02:11:14;12.70;99.90
18105;DHT22;9179;50.968;3.134;2023-09-30T02:13:43;12.80;99.90
18105;DHT22;9179;50.968;3.134;2023-09-30T02:16:14;12.80;99.90
18105;DHT22;9179;50.968;3.134;2023-09-30T02:18:43;12.80;99.90
18105;DHT22;9179;50.968;3.134;2023-09-30T02:21:11;12.80;99.90
18105;DHT22;9179;50.968;3.134;2023-09-30T02:23:38;12.90;99.90
18105;DHT22;9179;50.968;3.134;2023-09-30T02:26:05;12.90;99.90
18105;DHT22;9179;50.968;3.134;2023-09-30T02:28:32;13.00;99.90
18105;DHT22;9179;50.968;3.134;2023-09-30T02:31:01;13.10;99.90
18105;DHT22;9179;50.968;3.134;2023-09-30T02:33:28;13.10;99.90
18105;DHT22;9179;50.968;3.134;2023-09-30T02:35:55;13.20;99.90
18105;DHT22;9179;50.968;3.134;2023-09-30T02:38:22;13.20;99.90
18105;DHT22;9179;50.968;3.134;2023-09-30T02:40:50;13.30;99.90
18105;DHT22;9179;50.968;3.134;2023-09-30T02:43:17;13.30;99.90
18105;DHT22;9179;50.968;3.134;2023-09-30T02:45:45;13.30;99.90
18105;DHT22;9179;50.968;3.134;2023-09-30T02:48:13;13.40;99.90
18105;DHT22;9179;50.968;3.134;2023-09-30T02:50:42;13.40;99.90
18105;DHT22;9179;50.968;3.134;2023-09-30T02:53:11;13.40;99.90
18105;DHT22;9179;50.968;3.134;2023-09-30T02:55:37;13.30;99.90
18105;DHT22;9179;50.968;3.134;2023-09-30T02:58:04;13.30;99.90
18105;DHT22;9179;50.968;3.134;2023-09-30T03:00:32;13.20;99.90
18105;DHT22;9179;50.968;3.134;2023-09-30T03:03:00;13.20;99.90
18105;DHT22;9179;50.968;3.134;2023-09-30T03:05:30;13.10;99.90
18105;DHT22;9179;50.968;3.134;2023-09-30T03:07:59;13.10;99.90
18105;DHT22;9179;50.968;3.134;2023-09-30T03:10:26;13.00;99.90
18105;DHT22;9179;50.968;3.134;2023-09-30T03:12:53;12.80;99.90
18105;DHT22;9179;50.968;3.134;2023-09-30T03:15:20;12.80;99.90
18105;DHT22;9179;50.968;3.134;2023-09-30T03:17:47;12.70;99.90
18105;DHT22;9179;50.968;3.134;2023-09-30T03:20:14;12.60;99.90
18105;DHT22;9179;50.968;3.134;2023-09-30T03:22:46;12.50;99.90
18105;DHT22;9179;50.968;3.134;2023-09-30T03:25:14;12.40;99.90
18105;DHT22;9179;50.968;3.134;2023-09-30T03:27:43;12.20;99.90
18105;DHT22;9179;50.968;3.134;2023-09-30T03:30:11;12.20;99.90
18105;DHT22;9179;50.968;3.134;2023-09-30T03:32:39;12.10;99.90
18105;DHT22;9179;50.968;3.134;2023-09-30T03:35:06;12.10;99.90
18105;DHT22;9179;50.968;3.134;2023-09-30T03:37:36;12.10;99.90
18105;DHT22;9179;50.968;3.134;2023-09-30T03:40:05;12.10;99.90
18105;DHT22;9179;50.968;3.134;2023-09-30T03:42:39;12.10;99.90
18105;DHT22;9179;50.968;3.134;2023-09-30T03:45:08;12.10;99.90
18105;DHT22;9179;50.968;3.134;2023-09-30T03:47:36;12.00;99.90
18105;DHT22;9179;50.968;3.134;2023-09-30T03:50:04;12.00;99.90
18105;DHT22;9179;50.968;3.134;2023-09-30T03:52:33;11.90;99.90
18105;DHT22;9179;50.968;3.134;2023-09-30T03:55:00;11.80;99.90
18105;DHT22;9179;50.968;3.134;2023-09-30T03:57:32;11.80;99.90
18105;DHT22;9179;50.968;3.134;2023-09-30T03:59:59;11.80;99.90
18105;DHT22;9179;50.968;3.134;2023-09-30T04:02:26;11.80;99.90
18105;DHT22;9179;50.968;3.134;2023-09-30T04:04:53;11.70;99.90
18105;DHT22;9179;50.968;3.134;2023-09-30T04:07:21;11.70;99.90
18105;DHT22;9179;50.968;3.134;2023-09-30T04:09:48;11.80;99.90
18105;DHT22;9179;50.968;3.134;2023-09-30T04:12:15;11.70;99.90
18105;DHT22;9179;50.968;3.134;2023-09-30T04:14:43;11.70;99.90
18105;DHT22;9179;50.968;3.134;2023-09-30T04:17:10;11.70;99.90
18105;DHT22;9179;50.968;3.134;2023-09-30T04:19:37;11.70;99.90
18105;DHT22;9179;50.968;3.134;2023-09-30T04:22:04;11.60;99.90
18105;DHT22;9179;50.968;3.134;2023-09-30T04:24:31;11.60;99.90
18105;DHT22;9179;50.968;3.134;2023-09-30T04:26:58;11.60;99.90
18105;DHT22;9179;50.968;3.134;2023-09-30T04:29:28;11.60;99.90
18105;DHT22;9179;50.968;3.134;2023-09-30T04:31:57;11.50;99.90
18105;DHT22;9179;50.968;3.134;2023-09-30T04:34:24;11.50;99.90
18105;DHT22;9179;50.968;3.134;2023-09-30T04:36:53;11.40;99.90
18105;DHT22;9179;50.968;3.134;2023-09-30T04:39:20;11.40;99.90
18105;DHT22;9179;50.968;3.134;2023-09-30T04:41:47;11.40;99.90
18105;DHT22;9179;50.968;3.134;2023-09-30T04:44:14;11.50;99.90
18105;DHT22;9179;50.968;3.134;2023-09-30T04:46:41;11.50;99.90
18105;DHT22;9179;50.968;3.134;2023-09-30T04:49:14;11.60;99.90
18105;DHT22;9179;50.968;3.134;2023-09-30T04:51:41;11.60;99.90
18105;DHT22;9179;50.968;3.134;2023-09-30T04:54:08;11.60;99.90
18105;DHT22;9179;50.968;3.134;2023-09-30T04:56:36;11.60;99.90
18105;DHT22;9179;50.968;3.134;2023-09-30T04:59:04;11.60;99.90
18105;DHT22;9179;50.968;3.134;2023-09-30T05:01:31;11.60;99.90
18105;DHT22;9179;50.968;3.134;2023-09-30T05:03:58;11.60;99.90
18105;DHT22;9179;50.968;3.134;2023-09-30T05:06:27;11.60;99.90
18105;DHT22;9179;50.968;3.134;2023-09-30T05:08:54;11.60;99.90
18105;DHT22;9179;50.968;3.134;2023-09-30T05:11:22;11.60;99.90
18105;DHT22;9179;50.968;3.134;2023-09-30T05:13:48;11.60;99.90
18105;DHT22;9179;50.968;3.134;2023-09-30T05:16:16;11.60;99.90
18105;DHT22;9179;50.968;3.134;2023-09-30T05:18:43;11.60;99.90
18105;DHT22;9179;50.968;3.134;2023-09-30T05:21:10;11.60;99.90
18105;DHT22;9179;50.968;3.134;2023-09-30T05:23:38;11.50;99.90
18105;DHT22;9179;50.968;3.134;2023-09-30T05:26:05;11.40;99.90
18105;DHT22;9179;50.968;3.134;2023-09-30T05:28:32;11.40;99.90
18105;DHT22;9179;50.968;3.134;2023-09-30T05:31:00;11.40;99.90
18105;DHT22;9179;50.968;3.134;2023-09-30T05:33:28;11.40;99.90
18105;DHT22;9179;50.968;3.134;2023-09-30T05:35:55;11.40;99.90
18105;DHT22;9179;50.968;3.134;2023-09-30T05:38:21;11.40;99.90
18105;DHT22;9179;50.968;3.134;2023-09-30T05:40:50;11.40;99.90
18105;DHT22;9179;50.968;3.134;2023-09-30T05:43:17;11.40;99.90
18105;DHT22;9179;50.968;3.134;2023-09-30T05:45:45;11.40;99.90
18105;DHT22;9179;50.968;3.134;2023-09-30T05:48:15;11.40;99.90
18105;DHT22;9179;50.968;3.134;2023-09-30T05:50:42;11.40;99.90
18105;DHT22;9179;50.968;3.134;2023-09-30T05:53:09;11.40;99.90
18105;DHT22;9179;50.968;3.134;2023-09-30T05:55:37;11.40;99.90
18105;DHT22;9179;50.968;3.134;2023-09-30T05:58:08;11.40;99.90
18105;DHT22;9179;50.968;3.134;2023-09-30T06:00:35;11.50;99.90
18105;DHT22;9179;50.968;3.134;2023-09-30T06:03:03;11.50;99.90
18105;DHT22;9179;50.968;3.134;2023-09-30T06:05:31;11.60;99.90
18105;DHT22;9179;50.968;3.134;2023-09-30T06:08:00;11.60;99.90
18105;DHT22;9179;50.968;3.134;2023-09-30T06:10:30;11.60;99.90
18105;DHT22;9179;50.968;3.134;2023-09-30T06:12:58;11.60;99.90
18105;DHT22;9179;50.968;3.134;2023-09-30T06:15:26;11.70;99.90
18105;DHT22;9179;50.968;3.134;2023-09-30T06:17:54;11.80;99.90
18105;DHT22;9179;50.968;3.134;2023-09-30T06:20:22;12.00;99.90
18105;DHT22;9179;50.968;3.134;2023-09-30T06:22:51;12.10;99.90
18105;DHT22;9179;50.968;3.134;2023-09-30T06:25:19;12.20;99.90
18105;DHT22;9179;50.968;3.134;2023-09-30T06:27:49;12.40;99.90
18105;DHT22;9179;50.968;3.134;2023-09-30T06:30:17;12.60;99.90
18105;DHT22;9179;50.968;3.134;2023-09-30T06:32:46;12.70;99.90
18105;DHT22;9179;50.968;3.134;2023-09-30T06:35:13;13.00;99.90
18105;DHT22;9179;50.968;3.134;2023-09-30T06:37:41;13.30;99.90
18105;DHT22;9179;50.968;3.134;2023-09-30T06:40:09;13.60;99.90
18105;DHT22;9179;50.968;3.134;2023-09-30T06:42:38;13.90;99.90
18105;DHT22;9179;50.968;3.134;2023-09-30T06:45:07;14.10;99.90
18105;DHT22;9179;50.968;3.134;2023-09-30T06:47:36;14.20;99.90
18105;DHT22;9179;50.968;3.134;2023-09-30T06:50:08;14.40;99.90
18105;DHT22;9179;50.968;3.134;2023-09-30T06:52:39;14.60;99.90
18105;DHT22;9179;50.968;3.134;2023-09-30T06:55:07;14.80;99.90
18105;DHT22;9179;50.968;3.134;2023-09-30T06:57:35;15.00;99.90
18105;DHT22;9179;50.968;3.134;2023-09-30T07:00:05;15.10;99.90
18105;DHT22;9179;50.968;3.134;2023-09-30T07:02:34;15.30;99.90
18105;DHT22;9179;50.968;3.134;2023-09-30T07:05:01;15.40;99.90
18105;DHT22;9179;50.968;3.134;2023-09-30T07:07:31;15.40;99.90
18105;DHT22;9179;50.968;3.134;2023-09-30T07:09:58;15.50;99.90
18105;DHT22;9179;50.968;3.134;2023-09-30T07:12:25;15.70;99.90
18105;DHT22;9179;50.968;3.134;2023-09-30T07:14:52;15.80;99.90
18105;DHT22;9179;50.968;3.134;2023-09-30T07:17:19;16.00;99.90
18105;DHT22;9179;50.968;3.134;2023-09-30T07:19:46;16.10;99.90
18105;DHT22;9179;50.968;3.134;2023-09-30T07:22:14;16.20;99.90
18105;DHT22;9179;50.968;3.134;2023-09-30T07:24:42;16.40;99.90
18105;DHT22;9179;50.968;3.134;2023-09-30T07:27:09;16.50;99.90
18105;DHT22;9179;50.968;3.134;2023-09-30T07:29:36;16.80;99.90
18105;DHT22;9179;50.968;3.134;2023-09-30T07:32:03;17.20;99.90
18105;DHT22;9179;50.968;3.134;2023-09-30T07:34:30;17.60;99.90
18105;DHT22;9179;50.968;3.134;2023-09-30T07:36:57;17.80;99.90
18105;DHT22;9179;50.968;3.134;2023-09-30T07:39:23;18.00;99.90
18105;DHT22;9179;50.968;3.134;2023-09-30T07:41:52;18.00;99.90
18105;DHT22;9179;50.968;3.134;2023-09-30T07:44:19;18.10;99.90
18105;DHT22;9179;50.968;3.134;2023-09-30T07:46:46;18.30;99.90
18105;DHT22;9179;50.968;3.134;2023-09-30T07:49:13;18.60;99.90
18105;DHT22;9179;50.968;3.134;2023-09-30T07:51:40;19.60;99.90
18105;DHT22;9179;50.968;3.134;2023-09-30T07:54:07;20.30;99.90
18105;DHT22;9179;50.968;3.134;2023-09-30T07:56:34;20.90;99.90
18105;DHT22;9179;50.968;3.134;2023-09-30T07:59:02;21.10;99.90
18105;DHT22;9179;50.968;3.134;2023-09-30T08:01:30;21.40;99.90
18105;DHT22;9179;50.968;3.134;2023-09-30T08:03:57;21.40;99.90
18105;DHT22;9179;50.968;3.134;2023-09-30T08:06:24;21.60;99.90
18105;DHT22;9179;50.968;3.134;2023-09-30T08:08:51;22.20;99.90
18105;DHT22;9179;50.968;3.134;2023-09-30T08:11:18;22.60;99.90
18105;DHT22;9179;50.968;3.134;2023-09-30T08:13:46;23.30;99.90
18105;DHT22;9179;50.968;3.134;2023-09-30T08:16:14;23.40;99.90
18105;DHT22;9179;50.968;3.134;2023-09-30T08:18:41;23.60;99.90
18105;DHT22;9179;50.968;3.134;2023-09-30T08:21:09;23.80;99.90
18105;DHT22;9179;50.968;3.134;2023-09-30T08:23:37;23.50;99.90
18105;DHT22;9179;50.968;3.134;2023-09-30T08:26:05;23.90;99.90
18105;DHT22;9179;50.968;3.134;2023-09-30T08:28:32;24.30;99.90
18105;DHT22;9179;50.968;3.134;2023-09-30T08:31:02;24.50;99.90
18105;DHT22;9179;50.968;3.134;2023-09-30T08:33:31;24.70;99.90
18105;DHT22;9179;50.968;3.134;2023-09-30T08:36:02;25.00;99.90
18105;DHT22;9179;50.968;3.134;2023-09-30T08:38:33;25.20;99.90
18105;DHT22;9179;50.968;3.134;2023-09-30T08:41:00;25.20;99.90
18105;DHT22;9179;50.968;3.134;2023-09-30T08:43:28;25.40;99.90
18105;DHT22;9179;50.968;3.134;2023-09-30T08:45:57;25.50;99.90
18105;DHT22;9179;50.968;3.134;2023-09-30T08:48:26;25.30;99.90
18105;DHT22;9179;50.968;3.134;2023-09-30T08:50:54;25.60;99.90
18105;DHT22;9179;50.968;3.134;2023-09-30T08:53:22;25.90;99.90
18105;DHT22;9179;50.968;3.134;2023-09-30T08:55:53;25.50;99.90
18105;DHT22;9179;50.968;3.134;2023-09-30T08:58:23;25.70;99.90
18105;DHT22;9179;50.968;3.134;2023-09-30T09:00:50;26.00;99.90
18105;DHT22;9179;50.968;3.134;2023-09-30T09:03:18;26.70;99.90
18105;DHT22;9179;50.968;3.134;2023-09-30T09:05:46;26.70;99.90
18105;DHT22;9179;50.968;3.134;2023-09-30T09:08:14;26.40;99.90
18105;DHT22;9179;50.968;3.134;2023-09-30T09:10:55;26.40;99.90
18105;DHT22;9179;50.968;3.134;2023-09-30T09:13:23;26.90;99.90
18105;DHT22;9179;50.968;3.134;2023-09-30T09:15:50;27.90;99.90
18105;DHT22;9179;50.968;3.134;2023-09-30T09:18:32;28.50;99.90
18105;DHT22;9179;50.968;3.134;2023-09-30T09:21:09;28.00;99.90
18105;DHT22;9179;50.968;3.134;2023-09-30T09:23:42;27.40;99.90
18105;DHT22;9179;50.968;3.134;2023-09-30T09:26:10;27.10;99.90
18105;DHT22;9179;50.968;3.134;2023-09-30T09:28:37;27.20;99.90
18105;DHT22;9179;50.968;3.134;2023-09-30T09:31:23;27.20;99.90
18105;DHT22;9179;50.968;3.134;2023-09-30T09:33:50;27.20;99.90
18105;DHT22;9179;50.968;3.134;2023-09-30T09:36:19;27.40;99.90
18105;DHT22;9179;50.968;3.134;2023-09-30T09:38:49;27.70;99.90
18105;DHT22;9179;50.968;3.134;2023-09-30T09:41:19;28.20;99.90
18105;DHT22;9179;50.968;3.134;2023-09-30T09:43:48;28.10;99.90
18105;DHT22;9179;50.968;3.134;2023-09-30T09:46:17;27.90;99.90
18105;DHT22;9179;50.968;3.134;2023-09-30T09:48:45;27.90;99.90
18105;DHT22;9179;50.968;3.134;2023-09-30T09:51:13;28.00;99.90
18105;DHT22;9179;50.968;3.134;2023-09-30T09:53:41;28.20;99.90
18105;DHT22;9179;50.968;3.134;2023-09-30T09:56:11;28.00;99.90
18105;DHT22;9179;50.968;3.134;2023-09-30T09:58:39;28.00;99.90
18105;DHT22;9179;50.968;3.134;2023-09-30T10:01:09;28.00;99.90
18105;DHT22;9179;50.968;3.134;2023-09-30T10:03:37;28.60;99.90
18105;DHT22;9179;50.968;3.134;2023-09-30T10:06:05;28.90;99.90
18105;DHT22;9179;50.968;3.134;2023-09-30T10:08:38;29.10;99.90
18105;DHT22;9179;50.968;3.134;2023-09-30T10:11:07;28.90;99.90
18105;DHT22;9179;50.968;3.134;2023-09-30T10:13:55;29.00;99.90
18105;DHT22;9179;50.968;3.134;2023-09-30T10:16:47;28.80;99.90
18105;DHT22;9179;50.968;3.134;2023-09-30T10:19:16;29.10;99.90
18105;DHT22;9179;50.968;3.134;2023-09-30T10:22:24;29.20;99.90
18105;DHT22;9179;50.968;3.134;2023-09-30T10:24:55;29.10;99.90
18105;DHT22;9179;50.968;3.134;2023-09-30T10:27:32;28.80;99.90
18105;DHT22;9179;50.968;3.134;2023-09-30T10:30:09;29.00;99.90
18105;DHT22;9179;50.968;3.134;2023-09-30T10:33:07;29.30;99.90
18105;DHT22;9179;50.968;3.134;2023-09-30T10:35:46;30.10;99.90
18105;DHT22;9179;50.968;3.134;2023-09-30T10:38:38;30.10;99.90
18105;DHT22;9179;50.968;3.134;2023-09-30T10:41:09;30.00;99.90
18105;DHT22;9179;50.968;3.134;2023-09-30T10:43:39;29.70;99.90
18105;DHT22;9179;50.968;3.134;2023-09-30T10:46:32;29.60;99.90
18105;DHT22;9179;50.968;3.134;2023-09-30T10:49:30;29.50;99.90
18105;DHT22;9179;50.968;3.134;2023-09-30T10:52:01;29.30;99.90
18105;DHT22;9179;50.968;3.134;2023-09-30T10:54:29;29.30;99.90
18105;DHT22;9179;50.968;3.134;2023-09-30T10:57:00;29.20;99.90
18105;DHT22;9179;50.968;3.134;2023-09-30T10:59:29;28.80;99.90
18105;DHT22;9179;50.968;3.134;2023-09-30T11:01:58;29.60;99.90
18105;DHT22;9179;50.968;3.134;2023-09-30T11:04:25;29.50;99.90
18105;DHT22;9179;50.968;3.134;2023-09-30T11:06:54;29.50;99.90
18105;DHT22;9179;50.968;3.134;2023-09-30T11:09:22;30.00;99.90
18105;DHT22;9179;50.968;3.134;2023-09-30T11:11:50;30.50;99.90
18105;DHT22;9179;50.968;3.134;2023-09-30T11:14:22;30.40;98.70
18105;DHT22;9179;50.968;3.134;2023-09-30T11:16:50;29.30;98.60
18105;DHT22;9179;50.968;3.134;2023-09-30T11:19:19;28.90;99.50
18105;DHT22;9179;50.968;3.134;2023-09-30T11:21:48;29.50;99.20
18105;DHT22;9179;50.968;3.134;2023-09-30T11:24:16;29.90;98.80
18105;DHT22;9179;50.968;3.134;2023-09-30T11:26:43;30.30;98.10
18105;DHT22;9179;50.968;3.134;2023-09-30T11:29:11;30.50;97.30
18105;DHT22;9179;50.968;3.134;2023-09-30T11:31:39;30.40;96.60
18105;DHT22;9179;50.968;3.134;2023-09-30T11:34:06;30.50;95.80
18105;DHT22;9179;50.968;3.134;2023-09-30T11:36:36;31.00;94.80
18105;DHT22;9179;50.968;3.134;2023-09-30T11:39:04;30.40;93.30
18105;DHT22;9179;50.968;3.134;2023-09-30T11:41:35;29.90;93.50
18105;DHT22;9179;50.968;3.134;2023-09-30T11:44:05;30.20;93.20
18105;DHT22;9179;50.968;3.134;2023-09-30T11:46:47;30.70;93.00
18105;DHT22;9179;50.968;3.134;2023-09-30T11:49:24;30.80;92.30
18105;DHT22;9179;50.968;3.134;2023-09-30T11:51:53;30.90;91.70
18105;DHT22;9179;50.968;3.134;2023-09-30T11:54:20;30.80;91.70
18105;DHT22;9179;50.968;3.134;2023-09-30T11:56:48;31.40;91.80
18105;DHT22;9179;50.968;3.134;2023-09-30T11:59:16;32.30;90.90
18105;DHT22;9179;50.968;3.134;2023-09-30T12:01:45;31.80;89.00
18105;DHT22;9179;50.968;3.134;2023-09-30T12:04:14;31.00;87.80
18105;DHT22;9179;50.968;3.134;2023-09-30T12:06:42;30.50;90.00
18105;DHT22;9179;50.968;3.134;2023-09-30T12:09:11;31.50;90.60
18105;DHT22;9179;50.968;3.134;2023-09-30T12:11:40;32.30;88.30
18105;DHT22;9179;50.968;3.134;2023-09-30T12:14:12;31.70;86.80
18105;DHT22;9179;50.968;3.134;2023-09-30T12:16:39;32.20;85.10
18105;DHT22;9179;50.968;3.134;2023-09-30T12:19:07;31.70;81.70
18105;DHT22;9179;50.968;3.134;2023-09-30T12:21:34;30.80;82.60
18105;DHT22;9179;50.968;3.134;2023-09-30T12:24:02;30.80;85.60
18105;DHT22;9179;50.968;3.134;2023-09-30T12:26:32;31.10;86.50
18105;DHT22;9179;50.968;3.134;2023-09-30T12:28:59;31.10;85.40
18105;DHT22;9179;50.968;3.134;2023-09-30T12:31:26;30.50;85.10
18105;DHT22;9179;50.968;3.134;2023-09-30T12:33:53;30.60;86.70
18105;DHT22;9179;50.968;3.134;2023-09-30T12:36:20;30.90;86.70
18105;DHT22;9179;50.968;3.134;2023-09-30T12:38:48;30.90;85.10
18105;DHT22;9179;50.968;3.134;2023-09-30T12:41:15;30.00;84.70
18105;DHT22;9179;50.968;3.134;2023-09-30T12:43:46;29.10;85.90
18105;DHT22;9179;50.968;3.134;2023-09-30T12:46:13;28.20;86.70
18105;DHT22;9179;50.968;3.134;2023-09-30T12:48:39;27.90;88.30
18105;DHT22;9179;50.968;3.134;2023-09-30T12:51:07;28.40;90.00
18105;DHT22;9179;50.968;3.134;2023-09-30T12:53:35;28.90;89.60
18105;DHT22;9179;50.968;3.134;2023-09-30T12:56:02;28.50;89.30
18105;DHT22;9179;50.968;3.134;2023-09-30T12:58:29;28.50;90.40
18105;DHT22;9179;50.968;3.134;2023-09-30T13:00:58;29.10;90.50
18105;DHT22;9179;50.968;3.134;2023-09-30T13:03:24;30.00;90.00
18105;DHT22;9179;50.968;3.134;2023-09-30T13:05:51;30.00;88.10
18105;DHT22;9179;50.968;3.134;2023-09-30T13:08:19;30.10;87.50
18105;DHT22;9179;50.968;3.134;2023-09-30T13:10:46;30.30;86.50
18105;DHT22;9179;50.968;3.134;2023-09-30T13:13:16;30.60;85.40
18105;DHT22;9179;50.968;3.134;2023-09-30T13:15:43;30.70;85.20
18105;DHT22;9179;50.968;3.134;2023-09-30T13:18:11;31.20;84.30
18105;DHT22;9179;50.968;3.134;2023-09-30T13:20:38;31.60;82.80
18105;DHT22;9179;50.968;3.134;2023-09-30T13:23:05;31.60;82.00
18105;DHT22;9179;50.968;3.134;2023-09-30T13:25:31;31.50;83.20
18105;DHT22;9179;50.968;3.134;2023-09-30T13:27:58;31.90;82.90
18105;DHT22;9179;50.968;3.134;2023-09-30T13:30:25;30.60;82.00
18105;DHT22;9179;50.968;3.134;2023-09-30T13:32:52;29.90;82.10
18105;DHT22;9179;50.968;3.134;2023-09-30T13:35:20;29.60;83.40
18105;DHT22;9179;50.968;3.134;2023-09-30T13:37:47;29.90;83.80
18105;DHT22;9179;50.968;3.134;2023-09-30T13:40:14;29.70;83.40
18105;DHT22;9179;50.968;3.134;2023-09-30T13:42:41;30.00;83.40
18105;DHT22;9179;50.968;3.134;2023-09-30T13:45:09;30.80;82.50
18105;DHT22;9179;50.968;3.134;2023-09-30T13:47:36;30.60;80.90
18105;DHT22;9179;50.968;3.134;2023-09-30T13:50:04;30.30;80.30
18105;DHT22;9179;50.968;3.134;2023-09-30T13:52:34;29.80;80.90
18105;DHT22;9179;50.968;3.134;2023-09-30T13:55:01;29.30;82.50
18105;DHT22;9179;50.968;3.134;2023-09-30T13:57:28;28.90;82.90
18105;DHT22;9179;50.968;3.134;2023-09-30T13:59:56;28.30;83.70
18105;DHT22;9179;50.968;3.134;2023-09-30T14:02:23;28.00;84.70
18105;DHT22;9179;50.968;3.134;2023-09-30T14:04:51;29.10;84.60
18105;DHT22;9179;50.968;3.134;2023-09-30T14:07:19;29.70;83.30
18105;DHT22;9179;50.968;3.134;2023-09-30T14:09:47;31.00;81.40
18105;DHT22;9179;50.968;3.134;2023-09-30T14:12:14;31.70;79.90
18105;DHT22;9179;50.968;3.134;2023-09-30T14:14:41;32.60;78.00
18105;DHT22;9179;50.968;3.134;2023-09-30T14:17:08;33.20;77.00
18105;DHT22;9179;50.968;3.134;2023-09-30T14:19:36;33.60;74.80
18105;DHT22;9179;50.968;3.134;2023-09-30T14:22:04;32.30;75.10
18105;DHT22;9179;50.968;3.134;2023-09-30T14:24:31;31.50;75.90
18105;DHT22;9179;50.968;3.134;2023-09-30T14:27:01;30.60;76.80
18105;DHT22;9179;50.968;3.134;2023-09-30T14:29:28;30.40;77.70
18105;DHT22;9179;50.968;3.134;2023-09-30T14:31:55;30.60;77.80
18105;DHT22;9179;50.968;3.134;2023-09-30T14:34:23;30.80;77.90
18105;DHT22;9179;50.968;3.134;2023-09-30T14:36:50;31.30;77.20
18105;DHT22;9179;50.968;3.134;2023-09-30T14:39:17;31.70;76.20
18105;DHT22;9179;50.968;3.134;2023-09-30T14:41:44;32.50;74.80
18105;DHT22;9179;50.968;3.134;2023-09-30T14:44:13;32.50;73.60
18105;DHT22;9179;50.968;3.134;2023-09-30T14:46:40;30.90;74.90
18105;DHT22;9179;50.968;3.134;2023-09-30T14:49:07;30.10;77.00
18105;DHT22;9179;50.968;3.134;2023-09-30T14:51:34;30.70;77.40
18105;DHT22;9179;50.968;3.134;2023-09-30T14:54:02;31.00;76.30
18105;DHT22;9179;50.968;3.134;2023-09-30T14:56:31;30.90;76.10
18105;DHT22;9179;50.968;3.134;2023-09-30T14:58:58;31.30;75.50
18105;DHT22;9179;50.968;3.134;2023-09-30T15:01:26;31.50;74.60
18105;DHT22;9179;50.968;3.134;2023-09-30T15:03:54;30.60;75.30
18105;DHT22;9179;50.968;3.134;2023-09-30T15:06:22;30.20;75.80
18105;DHT22;9179;50.968;3.134;2023-09-30T15:08:50;29.10;77.50
18105;DHT22;9179;50.968;3.134;2023-09-30T15:11:17;27.90;79.70
18105;DHT22;9179;50.968;3.134;2023-09-30T15:13:44;27.20;81.30
18105;DHT22;9179;50.968;3.134;2023-09-30T15:16:16;26.60;83.10
18105;DHT22;9179;50.968;3.134;2023-09-30T15:18:45;26.20;84.10
18105;DHT22;9179;50.968;3.134;2023-09-30T15:21:12;25.90;85.10
18105;DHT22;9179;50.968;3.134;2023-09-30T15:23:39;25.50;86.10
18105;DHT22;9179;50.968;3.134;2023-09-30T15:26:06;25.20;87.00
18105;DHT22;9179;50.968;3.134;2023-09-30T15:28:33;24.90;87.80
18105;DHT22;9179;50.968;3.134;2023-09-30T15:31:00;24.60;88.80
18105;DHT22;9179;50.968;3.134;2023-09-30T15:33:28;24.40;89.60
18105;DHT22;9179;50.968;3.134;2023-09-30T15:35:56;24.30;89.90
18105;DHT22;9179;50.968;3.134;2023-09-30T15:38:23;24.30;90.00
18105;DHT22;9179;50.968;3.134;2023-09-30T15:40:51;24.10;90.10
18105;DHT22;9179;50.968;3.134;2023-09-30T15:43:19;23.90;90.50
18105;DHT22;9179;50.968;3.134;2023-09-30T15:45:46;23.80;90.80
18105;DHT22;9179;50.968;3.134;2023-09-30T15:48:13;23.80;91.10
18105;DHT22;9179;50.968;3.134;2023-09-30T15:50:40;23.90;91.20
18105;DHT22;9179;50.968;3.134;2023-09-30T15:53:08;23.90;91.40